Kingston, New Mexico
Current Conditions -  °F | °C
As of 7:53 PM on Saturday 25 Oct 2014 (Local Time) from KTCS Reporting Station
Clear Clear  
Wind Chill: 22°   Ceiling: Unl
Heat Index: 22°   Visibility: 10mi
Dew Point:   Wind: 7mph
Humidity: 39%   Direction: 270°W
Pressure: 30.14"   Gusts: NA
Location:  32.8972°N, 107.644°W
Report Text: KTCS 260153Z AUTO 27006KT 10SM CLR 22/07 A3014 RMK AO2 SLP149 T02170072 TSNO
Loading
Personal Weather Stations






























Interactive Weather Map
Tropical Storm Tracking
New forecast layout! Learn more

10-Day Weather Forecast

Advertisements
Track Severe Weather on mobile